sensor_id;sensor_type;location;lat;lon;timestamp;P1;durP1;ratioP1;P2;durP2;ratioP2
11935;SDS011;6027;48.576;9.180;2023-03-11T00:01:40;1.20;;;0.90;;
11935;SDS011;6027;48.576;9.180;2023-03-11T00:04:05;0.70;;;0.70;;
11935;SDS011;6027;48.576;9.180;2023-03-11T00:06:33;0.90;;;0.80;;
11935;SDS011;6027;48.576;9.180;2023-03-11T00:08:59;1.90;;;0.63;;
11935;SDS011;6027;48.576;9.180;2023-03-11T00:11:24;1.10;;;0.90;;
11935;SDS011;6027;48.576;9.180;2023-03-11T00:13:50;1.33;;;0.67;;
11935;SDS011;6027;48.576;9.180;2023-03-11T00:16:15;0.80;;;0.80;;
11935;SDS011;6027;48.576;9.180;2023-03-11T00:18:41;0.80;;;0.70;;
11935;SDS011;6027;48.576;9.180;2023-03-11T00:21:11;1.70;;;0.73;;
11935;SDS011;6027;48.576;9.180;2023-03-11T00:23:39;0.70;;;0.70;;
11935;SDS011;6027;48.576;9.180;2023-03-11T00:26:05;0.80;;;0.80;;
11935;SDS011;6027;48.576;9.180;2023-03-11T00:28:30;1.73;;;0.57;;
11935;SDS011;6027;48.576;9.180;2023-03-11T00:30:56;0.73;;;0.70;;
11935;SDS011;6027;48.576;9.180;2023-03-11T00:33:21;1.23;;;0.83;;
11935;SDS011;6027;48.576;9.180;2023-03-11T00:35:48;1.07;;;0.70;;
11935;SDS011;6027;48.576;9.180;2023-03-11T00:38:14;0.80;;;0.80;;
11935;SDS011;6027;48.576;9.180;2023-03-11T00:40:41;1.53;;;0.90;;
11935;SDS011;6027;48.576;9.180;2023-03-11T00:43:09;1.20;;;0.70;;
11935;SDS011;6027;48.576;9.180;2023-03-11T00:45:35;1.17;;;0.83;;
11935;SDS011;6027;48.576;9.180;2023-03-11T00:48:01;1.40;;;0.93;;
11935;SDS011;6027;48.576;9.180;2023-03-11T00:50:27;1.30;;;0.90;;
11935;SDS011;6027;48.576;9.180;2023-03-11T00:52:55;1.37;;;1.07;;
11935;SDS011;6027;48.576;9.180;2023-03-11T00:55:22;1.00;;;0.90;;
11935;SDS011;6027;48.576;9.180;2023-03-11T00:57:53;0.73;;;0.70;;
11935;SDS011;6027;48.576;9.180;2023-03-11T01:00:21;0.80;;;0.80;;
11935;SDS011;6027;48.576;9.180;2023-03-11T01:02:48;0.80;;;0.80;;
11935;SDS011;6027;48.576;9.180;2023-03-11T01:05:14;1.23;;;0.93;;
11935;SDS011;6027;48.576;9.180;2023-03-11T01:07:40;0.90;;;0.73;;
11935;SDS011;6027;48.576;9.180;2023-03-11T01:10:06;0.90;;;0.80;;
11935;SDS011;6027;48.576;9.180;2023-03-11T01:12:34;0.80;;;0.80;;
11935;SDS011;6027;48.576;9.180;2023-03-11T01:14:59;1.00;;;0.90;;
11935;SDS011;6027;48.576;9.180;2023-03-11T01:17:25;1.53;;;1.00;;
11935;SDS011;6027;48.576;9.180;2023-03-11T01:19:51;1.60;;;0.80;;
11935;SDS011;6027;48.576;9.180;2023-03-11T01:22:16;1.53;;;1.23;;
11935;SDS011;6027;48.576;9.180;2023-03-11T01:24:42;0.83;;;0.80;;
11935;SDS011;6027;48.576;9.180;2023-03-11T01:27:08;1.30;;;0.70;;
11935;SDS011;6027;48.576;9.180;2023-03-11T01:29:33;1.10;;;0.90;;
11935;SDS011;6027;48.576;9.180;2023-03-11T01:31:58;1.10;;;1.00;;
11935;SDS011;6027;48.576;9.180;2023-03-11T01:34:24;1.60;;;1.03;;
11935;SDS011;6027;48.576;9.180;2023-03-11T01:36:49;1.23;;;1.10;;
11935;SDS011;6027;48.576;9.180;2023-03-11T01:39:15;1.37;;;1.17;;
11935;SDS011;6027;48.576;9.180;2023-03-11T01:41:40;1.23;;;1.13;;
11935;SDS011;6027;48.576;9.180;2023-03-11T01:44:06;1.33;;;1.20;;
11935;SDS011;6027;48.576;9.180;2023-03-11T01:49:16;1.77;;;1.23;;
11935;SDS011;6027;48.576;9.180;2023-03-11T01:51:42;1.57;;;1.10;;
11935;SDS011;6027;48.576;9.180;2023-03-11T01:56:56;2.37;;;1.37;;
11935;SDS011;6027;48.576;9.180;2023-03-11T01:59:24;2.53;;;1.50;;
11935;SDS011;6027;48.576;9.180;2023-03-11T02:05:09;1.20;;;1.10;;
11935;SDS011;6027;48.576;9.180;2023-03-11T02:07:36;2.17;;;1.10;;
11935;SDS011;6027;48.576;9.180;2023-03-11T02:10:03;2.27;;;1.30;;
11935;SDS011;6027;48.576;9.180;2023-03-11T02:12:32;1.57;;;1.10;;
11935;SDS011;6027;48.576;9.180;2023-03-11T02:14:59;2.70;;;1.20;;
11935;SDS011;6027;48.576;9.180;2023-03-11T02:17:26;2.50;;;1.23;;
11935;SDS011;6027;48.576;9.180;2023-03-11T02:19:58;1.43;;;0.93;;
11935;SDS011;6027;48.576;9.180;2023-03-11T02:22:36;2.43;;;1.13;;
11935;SDS011;6027;48.576;9.180;2023-03-11T02:25:07;1.00;;;0.90;;
11935;SDS011;6027;48.576;9.180;2023-03-11T02:27:35;1.53;;;0.90;;
11935;SDS011;6027;48.576;9.180;2023-03-11T02:30:04;1.40;;;0.90;;
11935;SDS011;6027;48.576;9.180;2023-03-11T02:32:30;2.27;;;1.10;;
11935;SDS011;6027;48.576;9.180;2023-03-11T02:34:56;1.30;;;1.10;;
11935;SDS011;6027;48.576;9.180;2023-03-11T02:37:21;2.30;;;1.10;;
11935;SDS011;6027;48.576;9.180;2023-03-11T02:39:48;1.10;;;0.90;;
11935;SDS011;6027;48.576;9.180;2023-03-11T02:42:22;1.27;;;1.17;;
11935;SDS011;6027;48.576;9.180;2023-03-11T02:45:09;2.67;;;1.10;;
11935;SDS011;6027;48.576;9.180;2023-03-11T02:47:38;2.20;;;0.93;;
11935;SDS011;6027;48.576;9.180;2023-03-11T02:50:05;2.37;;;1.00;;
11935;SDS011;6027;48.576;9.180;2023-03-11T02:52:33;2.70;;;1.17;;
11935;SDS011;6027;48.576;9.180;2023-03-11T02:54:59;1.97;;;1.20;;
11935;SDS011;6027;48.576;9.180;2023-03-11T02:57:26;1.63;;;1.10;;
11935;SDS011;6027;48.576;9.180;2023-03-11T02:59:52;1.63;;;1.20;;
11935;SDS011;6027;48.576;9.180;2023-03-11T03:02:18;3.53;;;1.10;;
11935;SDS011;6027;48.576;9.180;2023-03-11T03:04:44;1.40;;;1.03;;
11935;SDS011;6027;48.576;9.180;2023-03-11T03:07:09;2.50;;;1.20;;
11935;SDS011;6027;48.576;9.180;2023-03-11T03:09:35;1.33;;;1.10;;
11935;SDS011;6027;48.576;9.180;2023-03-11T03:12:02;1.63;;;1.20;;
11935;SDS011;6027;48.576;9.180;2023-03-11T03:14:28;1.30;;;1.07;;
11935;SDS011;6027;48.576;9.180;2023-03-11T03:16:54;2.20;;;1.10;;
11935;SDS011;6027;48.576;9.180;2023-03-11T03:19:19;1.40;;;1.00;;
11935;SDS011;6027;48.576;9.180;2023-03-11T03:21:45;1.90;;;1.30;;
11935;SDS011;6027;48.576;9.180;2023-03-11T03:24:10;2.13;;;1.10;;
11935;SDS011;6027;48.576;9.180;2023-03-11T03:26:36;1.00;;;0.90;;
11935;SDS011;6027;48.576;9.180;2023-03-11T03:29:02;2.67;;;1.13;;
11935;SDS011;6027;48.576;9.180;2023-03-11T03:31:29;3.70;;;1.13;;
11935;SDS011;6027;48.576;9.180;2023-03-11T03:33:54;1.50;;;1.03;;
11935;SDS011;6027;48.576;9.180;2023-03-11T03:36:19;1.73;;;1.10;;
11935;SDS011;6027;48.576;9.180;2023-03-11T03:38:45;2.50;;;1.10;;
11935;SDS011;6027;48.576;9.180;2023-03-11T03:41:12;1.33;;;0.90;;
11935;SDS011;6027;48.576;9.180;2023-03-11T03:43:38;1.60;;;1.00;;
11935;SDS011;6027;48.576;9.180;2023-03-11T03:46:04;1.63;;;1.00;;
11935;SDS011;6027;48.576;9.180;2023-03-11T03:48:30;2.23;;;1.10;;
11935;SDS011;6027;48.576;9.180;2023-03-11T03:50:56;2.10;;;0.97;;
11935;SDS011;6027;48.576;9.180;2023-03-11T03:53:26;1.80;;;1.00;;
11935;SDS011;6027;48.576;9.180;2023-03-11T03:55:51;2.53;;;1.20;;
11935;SDS011;6027;48.576;9.180;2023-03-11T03:58:18;1.37;;;0.90;;
11935;SDS011;6027;48.576;9.180;2023-03-11T04:00:44;1.70;;;1.10;;
11935;SDS011;6027;48.576;9.180;2023-03-11T04:03:09;1.90;;;0.87;;
11935;SDS011;6027;48.576;9.180;2023-03-11T04:05:35;2.67;;;1.17;;
11935;SDS011;6027;48.576;9.180;2023-03-11T04:08:00;1.40;;;0.83;;
11935;SDS011;6027;48.576;9.180;2023-03-11T04:10:26;2.50;;;0.90;;
11935;SDS011;6027;48.576;9.180;2023-03-11T04:12:52;2.37;;;1.10;;
11935;SDS011;6027;48.576;9.180;2023-03-11T04:15:17;1.37;;;1.00;;
11935;SDS011;6027;48.576;9.180;2023-03-11T04:17:43;1.73;;;1.00;;
11935;SDS011;6027;48.576;9.180;2023-03-11T04:20:08;1.43;;;0.80;;
11935;SDS011;6027;48.576;9.180;2023-03-11T04:22:34;1.20;;;0.83;;
11935;SDS011;6027;48.576;9.180;2023-03-11T04:25:00;1.50;;;1.00;;
11935;SDS011;6027;48.576;9.180;2023-03-11T04:27:25;2.70;;;0.93;;
11935;SDS011;6027;48.576;9.180;2023-03-11T04:29:51;3.33;;;1.13;;
11935;SDS011;6027;48.576;9.180;2023-03-11T04:32:16;3.43;;;1.10;;
11935;SDS011;6027;48.576;9.180;2023-03-11T04:34:42;1.90;;;0.90;;
11935;SDS011;6027;48.576;9.180;2023-03-11T04:37:07;3.40;;;1.17;;
11935;SDS011;6027;48.576;9.180;2023-03-11T04:39:33;2.83;;;0.90;;
11935;SDS011;6027;48.576;9.180;2023-03-11T04:41:58;2.13;;;1.03;;
11935;SDS011;6027;48.576;9.180;2023-03-11T04:44:24;2.50;;;1.20;;
11935;SDS011;6027;48.576;9.180;2023-03-11T04:46:49;3.33;;;1.10;;
11935;SDS011;6027;48.576;9.180;2023-03-11T04:49:15;2.90;;;1.00;;
11935;SDS011;6027;48.576;9.180;2023-03-11T04:51:41;1.93;;;1.00;;
11935;SDS011;6027;48.576;9.180;2023-03-11T04:54:06;1.27;;;0.80;;
11935;SDS011;6027;48.576;9.180;2023-03-11T04:56:32;2.50;;;0.90;;
11935;SDS011;6027;48.576;9.180;2023-03-11T04:58:58;2.17;;;0.97;;
11935;SDS011;6027;48.576;9.180;2023-03-11T05:01:23;4.27;;;1.23;;
11935;SDS011;6027;48.576;9.180;2023-03-11T05:03:49;1.30;;;0.80;;
11935;SDS011;6027;48.576;9.180;2023-03-11T05:06:14;1.07;;;0.90;;
11935;SDS011;6027;48.576;9.180;2023-03-11T05:08:40;1.00;;;0.90;;
11935;SDS011;6027;48.576;9.180;2023-03-11T05:11:05;2.53;;;0.90;;
11935;SDS011;6027;48.576;9.180;2023-03-11T05:13:31;4.23;;;1.20;;
11935;SDS011;6027;48.576;9.180;2023-03-11T05:15:57;2.70;;;1.43;;
11935;SDS011;6027;48.576;9.180;2023-03-11T05:18:22;4.53;;;0.90;;
11935;SDS011;6027;48.576;9.180;2023-03-11T05:20:48;3.07;;;0.90;;
11935;SDS011;6027;48.576;9.180;2023-03-11T05:23:13;1.43;;;1.00;;
11935;SDS011;6027;48.576;9.180;2023-03-11T05:25:39;4.73;;;1.10;;
11935;SDS011;6027;48.576;9.180;2023-03-11T05:28:04;2.47;;;1.17;;
11935;SDS011;6027;48.576;9.180;2023-03-11T05:30:30;2.20;;;0.90;;
11935;SDS011;6027;48.576;9.180;2023-03-11T05:32:55;3.03;;;1.10;;
11935;SDS011;6027;48.576;9.180;2023-03-11T05:35:21;3.13;;;1.13;;
11935;SDS011;6027;48.576;9.180;2023-03-11T05:37:46;2.47;;;1.37;;
11935;SDS011;6027;48.576;9.180;2023-03-11T05:40:14;2.67;;;1.27;;
11935;SDS011;6027;48.576;9.180;2023-03-11T05:42:40;2.87;;;0.90;;
11935;SDS011;6027;48.576;9.180;2023-03-11T05:45:06;2.47;;;0.80;;
11935;SDS011;6027;48.576;9.180;2023-03-11T05:47:32;3.07;;;1.00;;
11935;SDS011;6027;48.576;9.180;2023-03-11T05:49:58;2.07;;;1.20;;
11935;SDS011;6027;48.576;9.180;2023-03-11T05:52:24;2.00;;;1.20;;
11935;SDS011;6027;48.576;9.180;2023-03-11T05:54:50;4.23;;;1.07;;
11935;SDS011;6027;48.576;9.180;2023-03-11T05:57:16;2.07;;;1.10;;
11935;SDS011;6027;48.576;9.180;2023-03-11T05:59:42;5.23;;;1.53;;
11935;SDS011;6027;48.576;9.180;2023-03-11T06:02:08;1.97;;;1.20;;
11935;SDS011;6027;48.576;9.180;2023-03-11T06:04:33;2.40;;;1.10;;
11935;SDS011;6027;48.576;9.180;2023-03-11T06:06:59;2.53;;;1.00;;
11935;SDS011;6027;48.576;9.180;2023-03-11T06:09:24;3.23;;;1.10;;
11935;SDS011;6027;48.576;9.180;2023-03-11T06:11:50;3.50;;;1.20;;
11935;SDS011;6027;48.576;9.180;2023-03-11T06:14:15;3.20;;;1.13;;
11935;SDS011;6027;48.576;9.180;2023-03-11T06:16:41;3.47;;;1.20;;
11935;SDS011;6027;48.576;9.180;2023-03-11T06:19:06;4.67;;;2.50;;
11935;SDS011;6027;48.576;9.180;2023-03-11T06:21:33;3.73;;;2.10;;
11935;SDS011;6027;48.576;9.180;2023-03-11T06:23:58;4.93;;;1.70;;
11935;SDS011;6027;48.576;9.180;2023-03-11T06:26:24;2.03;;;1.43;;
11935;SDS011;6027;48.576;9.180;2023-03-11T06:28:50;3.33;;;1.30;;
11935;SDS011;6027;48.576;9.180;2023-03-11T06:31:23;3.10;;;1.70;;
11935;SDS011;6027;48.576;9.180;2023-03-11T06:33:51;4.93;;;2.57;;
11935;SDS011;6027;48.576;9.180;2023-03-11T06:36:17;4.20;;;1.27;;
11935;SDS011;6027;48.576;9.180;2023-03-11T06:38:44;3.63;;;1.67;;
11935;SDS011;6027;48.576;9.180;2023-03-11T06:41:10;3.27;;;1.60;;
11935;SDS011;6027;48.576;9.180;2023-03-11T06:43:37;4.27;;;1.80;;
11935;SDS011;6027;48.576;9.180;2023-03-11T06:46:10;6.07;;;2.07;;
11935;SDS011;6027;48.576;9.180;2023-03-11T06:51:05;3.97;;;1.30;;
11935;SDS011;6027;48.576;9.180;2023-03-11T06:53:31;3.03;;;1.00;;
11935;SDS011;6027;48.576;9.180;2023-03-11T06:55:57;3.20;;;1.20;;
11935;SDS011;6027;48.576;9.180;2023-03-11T06:58:29;1.63;;;0.90;;
11935;SDS011;6027;48.576;9.180;2023-03-11T07:01:02;2.70;;;0.90;;
11935;SDS011;6027;48.576;9.180;2023-03-11T07:03:33;4.80;;;1.30;;
11935;SDS011;6027;48.576;9.180;2023-03-11T07:05:58;4.97;;;1.20;;
11935;SDS011;6027;48.576;9.180;2023-03-11T07:08:24;3.33;;;1.00;;
11935;SDS011;6027;48.576;9.180;2023-03-11T07:11:00;2.47;;;1.00;;
11935;SDS011;6027;48.576;9.180;2023-03-11T07:13:30;1.87;;;0.90;;
11935;SDS011;6027;48.576;9.180;2023-03-11T07:18:54;3.83;;;1.37;;
11935;SDS011;6027;48.576;9.180;2023-03-11T07:21:21;3.33;;;0.93;;
11935;SDS011;6027;48.576;9.180;2023-03-11T07:23:47;4.10;;;1.07;;
11935;SDS011;6027;48.576;9.180;2023-03-11T07:26:17;3.43;;;1.10;;
11935;SDS011;6027;48.576;9.180;2023-03-11T07:28:42;3.33;;;1.40;;
11935;SDS011;6027;48.576;9.180;2023-03-11T07:31:09;3.23;;;1.10;;
11935;SDS011;6027;48.576;9.180;2023-03-11T07:33:36;3.20;;;1.10;;
11935;SDS011;6027;48.576;9.180;2023-03-11T07:36:09;2.33;;;1.10;;
11935;SDS011;6027;48.576;9.180;2023-03-11T07:38:37;2.57;;;1.00;;
11935;SDS011;6027;48.576;9.180;2023-03-11T07:41:03;3.10;;;1.27;;
11935;SDS011;6027;48.576;9.180;2023-03-11T07:43:29;3.50;;;1.20;;
11935;SDS011;6027;48.576;9.180;2023-03-11T07:46:02;7.17;;;1.87;;
11935;SDS011;6027;48.576;9.180;2023-03-11T07:48:28;5.03;;;2.13;;
11935;SDS011;6027;48.576;9.180;2023-03-11T07:53:50;4.17;;;2.10;;
11935;SDS011;6027;48.576;9.180;2023-03-11T07:56:18;4.67;;;1.93;;
11935;SDS011;6027;48.576;9.180;2023-03-11T07:58:44;3.67;;;1.33;;
11935;SDS011;6027;48.576;9.180;2023-03-11T08:01:22;5.07;;;1.30;;
11935;SDS011;6027;48.576;9.180;2023-03-11T08:03:50;3.80;;;1.10;;
11935;SDS011;6027;48.576;9.180;2023-03-11T08:06:24;4.07;;;1.50;;
11935;SDS011;6027;48.576;9.180;2023-03-11T08:08:53;3.77;;;1.30;;
11935;SDS011;6027;48.576;9.180;2023-03-11T08:11:19;2.97;;;1.13;;
11935;SDS011;6027;48.576;9.180;2023-03-11T08:13:47;5.57;;;1.70;;
11935;SDS011;6027;48.576;9.180;2023-03-11T08:16:14;6.97;;;1.37;;
11935;SDS011;6027;48.576;9.180;2023-03-11T08:18:42;3.73;;;1.50;;
11935;SDS011;6027;48.576;9.180;2023-03-11T08:21:10;5.33;;;1.40;;
11935;SDS011;6027;48.576;9.180;2023-03-11T08:23:37;2.33;;;1.17;;
11935;SDS011;6027;48.576;9.180;2023-03-11T08:26:03;5.87;;;1.53;;
11935;SDS011;6027;48.576;9.180;2023-03-11T08:28:30;3.13;;;1.10;;
11935;SDS011;6027;48.576;9.180;2023-03-11T08:30:55;3.90;;;1.40;;
11935;SDS011;6027;48.576;9.180;2023-03-11T08:33:20;4.27;;;1.37;;
11935;SDS011;6027;48.576;9.180;2023-03-11T08:35:46;5.80;;;1.57;;
11935;SDS011;6027;48.576;9.180;2023-03-11T08:38:11;4.87;;;1.63;;
11935;SDS011;6027;48.576;9.180;2023-03-11T08:40:37;3.87;;;1.53;;
11935;SDS011;6027;48.576;9.180;2023-03-11T08:43:02;3.97;;;1.30;;
11935;SDS011;6027;48.576;9.180;2023-03-11T08:45:28;4.63;;;1.57;;
11935;SDS011;6027;48.576;9.180;2023-03-11T08:47:53;5.20;;;1.30;;
11935;SDS011;6027;48.576;9.180;2023-03-11T08:50:19;4.77;;;1.43;;
11935;SDS011;6027;48.576;9.180;2023-03-11T08:52:45;2.13;;;1.20;;
11935;SDS011;6027;48.576;9.180;2023-03-11T08:55:14;5.90;;;1.40;;
11935;SDS011;6027;48.576;9.180;2023-03-11T08:57:42;2.73;;;1.30;;
11935;SDS011;6027;48.576;9.180;2023-03-11T09:00:09;3.27;;;1.30;;
11935;SDS011;6027;48.576;9.180;2023-03-11T09:02:36;3.47;;;1.93;;
11935;SDS011;6027;48.576;9.180;2023-03-11T09:05:02;2.83;;;1.20;;
11935;SDS011;6027;48.576;9.180;2023-03-11T09:07:28;4.67;;;2.00;;
11935;SDS011;6027;48.576;9.180;2023-03-11T09:09:53;4.27;;;1.50;;
11935;SDS011;6027;48.576;9.180;2023-03-11T09:12:19;6.30;;;1.80;;
11935;SDS011;6027;48.576;9.180;2023-03-11T09:14:45;4.37;;;1.63;;
11935;SDS011;6027;48.576;9.180;2023-03-11T09:17:10;2.40;;;1.27;;
11935;SDS011;6027;48.576;9.180;2023-03-11T09:19:39;4.37;;;1.53;;
11935;SDS011;6027;48.576;9.180;2023-03-11T09:22:04;2.80;;;1.47;;
11935;SDS011;6027;48.576;9.180;2023-03-11T09:24:33;3.73;;;1.53;;
11935;SDS011;6027;48.576;9.180;2023-03-11T09:27:00;3.77;;;1.57;;
11935;SDS011;6027;48.576;9.180;2023-03-11T09:29:26;2.77;;;1.27;;
11935;SDS011;6027;48.576;9.180;2023-03-11T09:31:52;4.37;;;1.40;;
11935;SDS011;6027;48.576;9.180;2023-03-11T09:34:17;4.23;;;1.30;;
11935;SDS011;6027;48.576;9.180;2023-03-11T09:36:43;2.50;;;0.97;;
11935;SDS011;6027;48.576;9.180;2023-03-11T09:39:09;3.00;;;1.30;;
11935;SDS011;6027;48.576;9.180;2023-03-11T09:47:13;3.57;;;1.50;;
11935;SDS011;6027;48.576;9.180;2023-03-11T09:50:13;3.23;;;1.20;;
11935;SDS011;6027;48.576;9.180;2023-03-11T09:59:02;1.73;;;1.00;;
11935;SDS011;6027;48.576;9.180;2023-03-11T10:03:52;2.93;;;1.13;;
11935;SDS011;6027;48.576;9.180;2023-03-11T10:06:21;2.03;;;1.03;;
11935;SDS011;6027;48.576;9.180;2023-03-11T10:08:55;3.77;;;2.20;;
11935;SDS011;6027;48.576;9.180;2023-03-11T10:11:41;4.13;;;1.53;;
11935;SDS011;6027;48.576;9.180;2023-03-11T10:16:59;2.53;;;0.90;;
11935;SDS011;6027;48.576;9.180;2023-03-11T10:34:02;2.87;;;1.20;;
11935;SDS011;6027;48.576;9.180;2023-03-11T10:44:24;3.73;;;1.27;;
11935;SDS011;6027;48.576;9.180;2023-03-11T10:47:19;2.60;;;1.13;;
11935;SDS011;6027;48.576;9.180;2023-03-11T10:50:10;3.60;;;1.13;;
11935;SDS011;6027;48.576;9.180;2023-03-11T10:53:22;1.90;;;1.00;;
11935;SDS011;6027;48.576;9.180;2023-03-11T10:55:47;1.87;;;1.10;;
11935;SDS011;6027;48.576;9.180;2023-03-11T10:58:17;2.30;;;1.13;;
11935;SDS011;6027;48.576;9.180;2023-03-11T11:03:43;2.87;;;1.17;;
11935;SDS011;6027;48.576;9.180;2023-03-11T11:08:49;1.63;;;1.10;;
11935;SDS011;6027;48.576;9.180;2023-03-11T11:11:30;2.43;;;0.90;;
11935;SDS011;6027;48.576;9.180;2023-03-11T11:13:58;2.07;;;1.10;;
11935;SDS011;6027;48.576;9.180;2023-03-11T11:16:24;1.97;;;0.90;;
11935;SDS011;6027;48.576;9.180;2023-03-11T11:26:38;1.63;;;1.03;;
11935;SDS011;6027;48.576;9.180;2023-03-11T11:29:05;1.80;;;1.00;;
11935;SDS011;6027;48.576;9.180;2023-03-11T11:31:37;2.77;;;0.80;;
11935;SDS011;6027;48.576;9.180;2023-03-11T11:34:21;1.77;;;0.97;;
11935;SDS011;6027;48.576;9.180;2023-03-11T11:36:52;1.87;;;1.00;;
11935;SDS011;6027;48.576;9.180;2023-03-11T11:39:19;3.33;;;1.80;;
11935;SDS011;6027;48.576;9.180;2023-03-11T11:41:47;5.67;;;3.07;;
11935;SDS011;6027;48.576;9.180;2023-03-11T11:44:14;2.23;;;1.00;;
11935;SDS011;6027;48.576;9.180;2023-03-11T11:47:04;2.87;;;1.30;;
11935;SDS011;6027;48.576;9.180;2023-03-11T11:49:47;2.50;;;1.17;;
11935;SDS011;6027;48.576;9.180;2023-03-11T11:52:23;1.67;;;1.00;;
11935;SDS011;6027;48.576;9.180;2023-03-11T11:55:23;2.30;;;0.80;;
11935;SDS011;6027;48.576;9.180;2023-03-11T11:57:52;1.90;;;0.80;;
11935;SDS011;6027;48.576;9.180;2023-03-11T12:05:29;1.40;;;0.80;;
11935;SDS011;6027;48.576;9.180;2023-03-11T12:21:07;1.57;;;0.93;;
11935;SDS011;6027;48.576;9.180;2023-03-11T12:27:00;2.93;;;1.30;;
11935;SDS011;6027;48.576;9.180;2023-03-11T12:29:35;2.67;;;1.07;;
11935;SDS011;6027;48.576;9.180;2023-03-11T12:32:21;1.30;;;0.97;;
11935;SDS011;6027;48.576;9.180;2023-03-11T12:34:52;2.93;;;1.10;;
11935;SDS011;6027;48.576;9.180;2023-03-11T12:37:17;2.40;;;1.03;;
11935;SDS011;6027;48.576;9.180;2023-03-11T12:39:46;2.90;;;1.27;;
11935;SDS011;6027;48.576;9.180;2023-03-11T12:44:44;2.83;;;1.00;;
11935;SDS011;6027;48.576;9.180;2023-03-11T12:49:39;2.13;;;1.20;;
11935;SDS011;6027;48.576;9.180;2023-03-11T12:54:33;3.23;;;1.20;;
11935;SDS011;6027;48.576;9.180;2023-03-11T12:56:59;2.27;;;1.03;;
11935;SDS011;6027;48.576;9.180;2023-03-11T13:07:50;2.27;;;0.90;;
11935;SDS011;6027;48.576;9.180;2023-03-11T13:10:40;5.73;;;1.30;;
11935;SDS011;6027;48.576;9.180;2023-03-11T13:18:41;2.23;;;1.10;;
11935;SDS011;6027;48.576;9.180;2023-03-11T13:24:47;2.23;;;1.13;;
11935;SDS011;6027;48.576;9.180;2023-03-11T13:36:13;2.53;;;1.30;;
11935;SDS011;6027;48.576;9.180;2023-03-11T13:41:16;1.53;;;1.17;;
11935;SDS011;6027;48.576;9.180;2023-03-11T13:44:13;3.20;;;1.10;;
11935;SDS011;6027;48.576;9.180;2023-03-11T13:46:41;3.47;;;1.03;;
11935;SDS011;6027;48.576;9.180;2023-03-11T13:52:02;2.73;;;1.10;;
11935;SDS011;6027;48.576;9.180;2023-03-11T13:54:34;3.63;;;1.40;;
11935;SDS011;6027;48.576;9.180;2023-03-11T13:57:10;2.30;;;1.43;;
11935;SDS011;6027;48.576;9.180;2023-03-11T13:59:50;3.38;;;1.40;;
11935;SDS011;6027;48.576;9.180;2023-03-11T14:02:18;1.60;;;1.17;;
11935;SDS011;6027;48.576;9.180;2023-03-11T14:04:49;4.50;;;1.73;;
11935;SDS011;6027;48.576;9.180;2023-03-11T14:10:07;3.40;;;1.30;;
11935;SDS011;6027;48.576;9.180;2023-03-11T14:13:06;3.57;;;2.40;;
11935;SDS011;6027;48.576;9.180;2023-03-11T14:15:41;2.40;;;1.03;;
11935;SDS011;6027;48.576;9.180;2023-03-11T14:18:33;2.43;;;1.67;;
11935;SDS011;6027;48.576;9.180;2023-03-11T14:21:10;2.27;;;1.27;;
11935;SDS011;6027;48.576;9.180;2023-03-11T14:23:51;3.07;;;1.30;;
11935;SDS011;6027;48.576;9.180;2023-03-11T14:26:19;1.40;;;0.90;;
11935;SDS011;6027;48.576;9.180;2023-03-11T14:28:47;3.30;;;1.80;;
11935;SDS011;6027;48.576;9.180;2023-03-11T14:34:02;4.30;;;1.23;;
11935;SDS011;6027;48.576;9.180;2023-03-11T14:36:45;2.60;;;1.10;;
11935;SDS011;6027;48.576;9.180;2023-03-11T14:44:22;2.07;;;1.37;;
11935;SDS011;6027;48.576;9.180;2023-03-11T14:46:51;2.73;;;1.07;;
11935;SDS011;6027;48.576;9.180;2023-03-11T14:49:23;1.30;;;0.90;;
11935;SDS011;6027;48.576;9.180;2023-03-11T14:51:51;1.80;;;1.07;;
11935;SDS011;6027;48.576;9.180;2023-03-11T14:54:23;2.90;;;1.13;;
11935;SDS011;6027;48.576;9.180;2023-03-11T14:59:47;2.20;;;1.13;;
11935;SDS011;6027;48.576;9.180;2023-03-11T15:02:29;1.67;;;1.00;;
11935;SDS011;6027;48.576;9.180;2023-03-11T15:08:22;2.10;;;1.00;;
11935;SDS011;6027;48.576;9.180;2023-03-11T15:11:01;3.50;;;1.20;;
11935;SDS011;6027;48.576;9.180;2023-03-11T15:13:43;2.30;;;1.37;;
11935;SDS011;6027;48.576;9.180;2023-03-11T15:16:24;4.07;;;1.80;;
11935;SDS011;6027;48.576;9.180;2023-03-11T15:21:53;3.53;;;1.10;;
11935;SDS011;6027;48.576;9.180;2023-03-11T15:24:27;1.93;;;1.50;;
11935;SDS011;6027;48.576;9.180;2023-03-11T15:27:05;2.67;;;1.33;;
11935;SDS011;6027;48.576;9.180;2023-03-11T15:29:45;2.83;;;1.17;;
11935;SDS011;6027;48.576;9.180;2023-03-11T15:32:34;3.17;;;1.20;;
11935;SDS011;6027;48.576;9.180;2023-03-11T15:37:31;1.92;;;1.00;;
11935;SDS011;6027;48.576;9.180;2023-03-11T15:39:57;2.10;;;0.80;;
11935;SDS011;6027;48.576;9.180;2023-03-11T15:42:36;4.50;;;1.83;;
11935;SDS011;6027;48.576;9.180;2023-03-11T15:45:03;2.50;;;1.50;;
11935;SDS011;6027;48.576;9.180;2023-03-11T15:47:36;2.83;;;1.45;;
11935;SDS011;6027;48.576;9.180;2023-03-11T15:50:11;2.13;;;1.00;;
11935;SDS011;6027;48.576;9.180;2023-03-11T15:52:43;5.30;;;4.20;;
11935;SDS011;6027;48.576;9.180;2023-03-11T15:55:10;3.67;;;1.93;;
11935;SDS011;6027;48.576;9.180;2023-03-11T15:57:35;2.07;;;1.37;;
11935;SDS011;6027;48.576;9.180;2023-03-11T16:00:03;2.65;;;1.00;;
11935;SDS011;6027;48.576;9.180;2023-03-11T16:02:30;1.77;;;0.97;;
11935;SDS011;6027;48.576;9.180;2023-03-11T16:04:56;1.92;;;1.20;;
11935;SDS011;6027;48.576;9.180;2023-03-11T16:07:22;3.67;;;1.83;;
11935;SDS011;6027;48.576;9.180;2023-03-11T16:09:48;3.50;;;1.50;;
11935;SDS011;6027;48.576;9.180;2023-03-11T16:12:17;2.73;;;1.43;;
11935;SDS011;6027;48.576;9.180;2023-03-11T16:14:48;3.33;;;1.50;;
11935;SDS011;6027;48.576;9.180;2023-03-11T16:17:14;2.20;;;1.50;;
11935;SDS011;6027;48.576;9.180;2023-03-11T16:19:41;3.13;;;1.77;;
11935;SDS011;6027;48.576;9.180;2023-03-11T16:22:08;4.57;;;1.80;;
11935;SDS011;6027;48.576;9.180;2023-03-11T16:24:49;3.07;;;1.90;;
11935;SDS011;6027;48.576;9.180;2023-03-11T16:27:17;5.30;;;1.90;;
11935;SDS011;6027;48.576;9.180;2023-03-11T16:29:43;3.45;;;1.48;;
11935;SDS011;6027;48.576;9.180;2023-03-11T16:32:10;2.17;;;1.70;;
11935;SDS011;6027;48.576;9.180;2023-03-11T16:34:36;4.17;;;2.00;;
11935;SDS011;6027;48.576;9.180;2023-03-11T16:37:03;4.27;;;2.77;;
11935;SDS011;6027;48.576;9.180;2023-03-11T16:39:29;3.93;;;3.03;;
11935;SDS011;6027;48.576;9.180;2023-03-11T16:41:55;3.93;;;1.90;;
11935;SDS011;6027;48.576;9.180;2023-03-11T16:44:20;7.53;;;5.87;;
11935;SDS011;6027;48.576;9.180;2023-03-11T16:46:45;7.77;;;5.37;;
11935;SDS011;6027;48.576;9.180;2023-03-11T16:49:11;7.37;;;4.63;;
11935;SDS011;6027;48.576;9.180;2023-03-11T16:51:36;7.53;;;5.47;;
11935;SDS011;6027;48.576;9.180;2023-03-11T16:54:01;8.93;;;4.97;;
11935;SDS011;6027;48.576;9.180;2023-03-11T16:56:27;8.30;;;6.00;;
11935;SDS011;6027;48.576;9.180;2023-03-11T16:58:52;8.03;;;6.33;;
11935;SDS011;6027;48.576;9.180;2023-03-11T17:01:18;6.67;;;4.40;;
11935;SDS011;6027;48.576;9.180;2023-03-11T17:03:46;5.70;;;3.53;;
11935;SDS011;6027;48.576;9.180;2023-03-11T17:06:14;6.53;;;3.00;;
11935;SDS011;6027;48.576;9.180;2023-03-11T17:08:40;5.63;;;2.97;;
11935;SDS011;6027;48.576;9.180;2023-03-11T17:11:12;5.30;;;2.77;;
11935;SDS011;6027;48.576;9.180;2023-03-11T17:13:45;4.60;;;2.73;;
11935;SDS011;6027;48.576;9.180;2023-03-11T17:16:10;6.03;;;2.90;;
11935;SDS011;6027;48.576;9.180;2023-03-11T17:18:36;4.80;;;2.90;;
11935;SDS011;6027;48.576;9.180;2023-03-11T17:21:09;5.00;;;3.00;;
11935;SDS011;6027;48.576;9.180;2023-03-11T17:23:37;4.57;;;2.87;;
11935;SDS011;6027;48.576;9.180;2023-03-11T17:26:09;4.07;;;2.87;;
11935;SDS011;6027;48.576;9.180;2023-03-11T17:28:36;4.07;;;2.23;;
11935;SDS011;6027;48.576;9.180;2023-03-11T17:31:04;4.43;;;2.80;;
11935;SDS011;6027;48.576;9.180;2023-03-11T17:33:32;4.73;;;2.77;;
11935;SDS011;6027;48.576;9.180;2023-03-11T17:36:01;7.30;;;3.77;;
11935;SDS011;6027;48.576;9.180;2023-03-11T17:38:28;5.23;;;2.50;;
11935;SDS011;6027;48.576;9.180;2023-03-11T17:40:58;4.20;;;2.27;;
11935;SDS011;6027;48.576;9.180;2023-03-11T17:43:30;4.47;;;2.53;;